Time;durP1;ratioP1;P1;durP2;ratioP2;P2;SDS_P1;SDS_P2;PMS_P1;PMS_P2;Temp;Humidity;BMP_temperature;BMP_pressure;BME280_temperature;BME280_humidity;BME280_pressure;Samples;Min_cycle;Max_cycle;Signal;HPM_P1;HPM_P2
2023/08/17 00:00:03;;;;;;;;;;;;;;;;;;5055903;28;19942;-65
2023/08/17 00:02:29;;;;;;;;;;;;;;;;;;5053732;28;19928;-65
2023/08/17 00:04:55;;;;;;;;;;;;;;;;;;5052133;28;19945;-66
2023/08/17 00:07:21;;;;;;;;;;;;;;;;;;5053059;28;20491;-65
2023/08/17 00:09:47;;;;;;;;;;;;;;;;;;5053611;28;20037;-65
2023/08/17 00:12:13;;;;;;;;;;;;;;;;;;5052151;28;19922;-67
2023/08/17 00:14:39;;;;;;;;;;;;;;;;;;5053482;28;20070;-65
2023/08/17 00:17:05;;;;;;;;;;;;;;;;;;5054293;28;19961;-65
2023/08/17 00:19:31;;;;;;;;;;;;;;;;;;5051782;28;19988;-66
2023/08/17 00:21:57;;;;;;;;;;;;;;;;;;5053268;28;19917;-65
2023/08/17 00:24:23;;;;;;;;;;;;;;;;;;5053631;28;19926;-65
2023/08/17 00:26:49;;;;;;;;;;;;;;;;;;5053243;28;20327;-67
2023/08/17 00:29:15;;;;;;;;;;;;;;;;;;5054027;28;20327;-65
2023/08/17 00:31:41;;;;;;;;;;;;;;;;;;5053761;28;20030;-64
2023/08/17 00:34:07;;;;;;;;;;;;;;;;;;5053731;28;20273;-65
2023/08/17 00:36:33;;;;;;;;;;;;;;;;;;5053131;28;20008;-65
2023/08/17 00:38:58;;;;;;;;;;;;;;;;;;5051766;28;19951;-65
2023/08/17 00:41:24;;;;;;;;;;;;;;;;;;5052946;28;19936;-65
2023/08/17 00:43:50;;;;;;;;;;;;;;;;;;5052989;28;19949;-65
2023/08/17 00:46:17;;;;;;;;;;;;;;;;;;5053273;28;19925;-65
2023/08/17 00:48:43;;;;;;;9.30;6.60;;;;;;;;;;5051447;28;20025;-65
2023/08/17 00:51:09;;;;;;;9.00;6.67;;;;;;;;;;5052644;28;20174;-65
2023/08/17 00:53:35;;;;;;;7.57;6.10;;;;;;;;;;5056022;28;20518;-65
2023/08/17 00:56:02;;;;;;;9.85;7.10;;;;;;;;;;5056112;28;20299;-64
2023/08/17 00:58:28;;;;;;;10.70;6.40;;;;;;;;;;5054516;28;20237;-65
2023/08/17 01:00:54;;;;;;;9.53;6.93;;;;;;;;;;5055982;28;20258;-65
2023/08/17 01:03:22;;;;;;;11.90;7.00;;;;;;;;;;5055884;28;20254;-65
2023/08/17 01:05:48;;;;;;;9.40;7.10;;;;;;;;;;5056243;28;20219;-65
2023/08/17 01:08:14;;;;;;;10.43;6.60;;;;;;;;;;5055514;28;20212;-64
2023/08/17 01:10:51;;;;;;;9.97;6.83;;;;;;;;;;5054429;28;20186;-64
2023/08/17 01:13:26;;;;;;;12.30;7.70;;;;;;;;;;5055894;28;20661;-64
2023/08/17 01:15:54;;;;;;;11.13;7.20;;;;;;;;;;5055595;28;20628;-64
2023/08/17 01:18:25;;;;;;;7.50;6.80;;;;;;;;;;5054252;28;20206;-65
2023/08/17 01:20:50;;;;;;;;;;;;;;;;;;5056421;28;20554;-64
2023/08/17 01:23:16;;;;;;;;;;;;;;;;;;5055664;28;20191;-64
2023/08/17 01:25:42;;;;;;;;;;;;;;;;;;5055508;28;20008;-64
2023/08/17 01:28:08;;;;;;;;;;;;;;;;;;5054244;28;20411;-65
2023/08/17 01:30:38;;;;;;;7.63;6.80;;;;;;;;;;5055496;28;19985;-65
2023/08/17 01:33:06;;;;;;;10.67;7.30;;;;;;;;;;5053876;28;20182;-64
2023/08/17 01:35:45;;;;;;;11.27;7.27;;;;;;;;;;5055374;28;20213;-65
2023/08/17 01:38:13;;;;;;;9.43;6.90;;;;;;;;;;5055071;28;20737;-66
2023/08/17 01:40:46;;;;;;;12.10;7.30;;;;;;;;;;5055170;28;20234;-64
2023/08/17 01:43:12;;;;;;;13.05;7.70;;;;;;;;;;5055154;28;20174;-64
2023/08/17 01:45:38;;;;;;;11.07;7.07;;;;;;;;;;5053683;28;20208;-64
2023/08/17 01:48:04;;;;;;;;;;;;;;;;;;5055299;28;20325;-64
2023/08/17 01:50:30;;;;;;;;;;;;;;;;;;5054081;28;20297;-65
2023/08/17 01:52:56;;;;;;;;;;;;;;;;;;5055330;28;19965;-64
2023/08/17 01:55:23;;;;;;;;;;;;;;;;;;5055463;28;20371;-64
2023/08/17 01:57:49;;;;;;;;;;;;;;;;;;5055289;28;19936;-64
2023/08/17 02:00:14;;;;;;;;;;;;;;;;;;5055142;28;20431;-64
2023/08/17 02:02:40;;;;;;;;;;;;;;;;;;5055004;28;19968;-64
2023/08/17 02:05:06;;;;;;;;;;;;;;;;;;5054924;28;19948;-64
2023/08/17 02:07:32;;;;;;;;;;;;;;;;;;5055047;28;20000;-64
2023/08/17 02:09:58;;;;;;;;;;;;;;;;;;5055137;28;19936;-64
2023/08/17 02:12:24;;;;;;;;;;;;;;;;;;5055002;28;19911;-64
2023/08/17 02:14:50;;;;;;;;;;;;;;;;;;5053756;28;20407;-65
2023/08/17 02:17:16;;;;;;;8.07;6.23;;;;;;;;;;5054526;28;19944;-65
2023/08/17 02:19:42;;;;;;;;;;;;;;;;;;5055210;28;20203;-64
2023/08/17 02:22:08;;;;;;;;;;;;;;;;;;5055484;28;19938;-64
2023/08/17 02:24:34;;;;;;;;;;;;;;;;;;5055068;28;20393;-65
2023/08/17 02:27:00;;;;;;;;;;;;;;;;;;5054730;28;19954;-65
2023/08/17 02:29:26;;;;;;;12.00;6.00;;;;;;;;;;5054603;28;19977;-65
2023/08/17 02:31:52;;;;;;;10.07;5.70;;;;;;;;;;5052853;28;20718;-64
2023/08/17 02:34:18;;;;;;;9.10;5.00;;;;;;;;;;5054540;28;20778;-65
2023/08/17 02:36:44;;;;;;;9.67;5.70;;;;;;;;;;5054156;28;20223;-65
2023/08/17 02:39:10;;;;;;;8.00;4.50;;;;;;;;;;5054383;28;20205;-64
2023/08/17 02:41:36;;;;;;;6.00;4.67;;;;;;;;;;5054164;28;20175;-64
2023/08/17 02:44:02;;;;;;;9.47;5.07;;;;;;;;;;5054189;28;20185;-65
2023/08/17 02:46:28;;;;;;;10.33;5.50;;;;;;;;;;5054104;28;20189;-64
2023/08/17 02:48:54;;;;;;;5.93;5.07;;;;;;;;;;5054054;28;20675;-63
2023/08/17 02:51:20;;;;;;;6.63;4.83;;;;;;;;;;5054035;28;20178;-65
2023/08/17 02:53:46;;;;;;;9.17;5.13;;;;;;;;;;5052636;28;20183;-64
2023/08/17 02:56:12;;;;;;;8.57;5.17;;;;;;;;;;5053621;28;20197;-65
2023/08/17 02:58:41;;;;;;;9.93;5.67;;;;;;;;;;5054002;28;20202;-64
2023/08/17 03:01:07;;;;;;;7.50;5.23;;;;;;;;;;5052508;28;20569;-64
2023/08/17 03:03:33;;;;;;;7.83;5.17;;;;;;;;;;5053489;28;20220;-64
2023/08/17 03:05:59;;;;;;;11.13;5.60;;;;;;;;;;5053502;28;20175;-64
2023/08/17 03:08:25;;;;;;;8.17;5.30;;;;;;;;;;5053328;28;20246;-64
2023/08/17 03:10:51;;;;;;;9.93;5.50;;;;;;;;;;5053318;28;20178;-65
2023/08/17 03:13:17;;;;;;;9.13;5.60;;;;;;;;;;5053601;28;20538;-64
2023/08/17 03:15:43;;;;;;;11.85;6.53;;;;;;;;;;5051487;28;20462;-64
2023/08/17 03:18:09;;;;;;;9.35;6.70;;;;;;;;;;5052069;28;20382;-64
2023/08/17 03:20:35;;;;;;;9.93;5.87;;;;;;;;;;5053172;28;20285;-64
2023/08/17 03:23:01;;;;;;;10.03;6.10;;;;;;;;;;5051890;28;20179;-64
2023/08/17 03:25:27;;;;;;;9.70;5.33;;;;;;;;;;5053445;28;20228;-63
2023/08/17 03:27:53;;;;;;;7.10;5.00;;;;;;;;;;5051763;28;20255;-63
2023/08/17 03:30:19;;;;;;;12.23;5.50;;;;;;;;;;5052940;28;20186;-64
2023/08/17 03:32:45;;;;;;;8.07;5.67;;;;;;;;;;5053005;28;20178;-64
2023/08/17 03:35:13;;;;;;;11.47;5.77;;;;;;;;;;5051660;28;20179;-64
2023/08/17 03:37:38;;;;;;;10.83;5.80;;;;;;;;;;5052861;28;20198;-64
2023/08/17 03:40:05;;;;;;;6.53;5.47;;;;;;;;;;5052906;28;20680;-64
2023/08/17 03:42:31;;;;;;;8.60;5.50;;;;;;;;;;5053380;28;20182;-64
2023/08/17 03:44:57;;;;;;;8.50;5.50;;;;;;;;;;5052746;28;20205;-64
2023/08/17 03:47:23;;;;;;;8.40;6.17;;;;;;;;;;5053045;28;20199;-64
2023/08/17 03:49:49;;;;;;;8.13;6.07;;;;;;;;;;5052800;28;20189;-64
2023/08/17 03:52:15;;;;;;;7.43;5.77;;;;;;;;;;5052866;28;20259;-64
2023/08/17 03:54:40;;;;;;;9.60;6.10;;;;;;;;;;5053188;28;20189;-64
2023/08/17 03:57:06;;;;;;;11.17;6.00;;;;;;;;;;5052733;28;20264;-63
2023/08/17 03:59:32;;;;;;;10.00;5.90;;;;;;;;;;5052664;28;20263;-63
2023/08/17 04:01:58;;;;;;;9.43;6.60;;;;;;;;;;5051613;28;20178;-64
2023/08/17 04:04:24;;;;;;;9.47;6.20;;;;;;;;;;5051905;28;20198;-64
2023/08/17 04:06:50;;;;;;;11.43;7.13;;;;;;;;;;5053145;28;20189;-64
2023/08/17 04:09:16;;;;;;;8.13;6.20;;;;;;;;;;5053230;28;20186;-64
2023/08/17 04:11:42;;;;;;;9.37;6.87;;;;;;;;;;5065161;23;20604;-70
2023/08/17 04:14:08;;;;;;;9.47;6.77;;;;;;;;;;5032891;28;20646;-70
2023/08/17 04:16:35;;;;;;;10.47;6.83;;;;;;;;;;5031575;28;20285;-70
2023/08/17 04:19:01;;;;;;;12.57;6.73;;;;;;;;;;5031269;28;20207;-71
2023/08/17 04:21:27;;;;;;;10.67;6.93;;;;;;;;;;5033019;28;20191;-70
2023/08/17 04:23:53;;;;;;;9.83;7.40;;;;;;;;;;5032578;28;20180;-71
2023/08/17 04:26:19;;;;;;;13.97;7.30;;;;;;;;;;5031364;28;20718;-70
2023/08/17 04:28:45;;;;;;;11.67;7.10;;;;;;;;;;5035002;28;20309;-70
2023/08/17 04:31:11;;;;;;;10.80;7.17;;;;;;;;;;5036308;28;20241;-70
2023/08/17 04:33:36;;;;;;;10.97;7.23;;;;;;;;;;5036735;28;20179;-70
2023/08/17 04:36:02;;;;;;;11.97;7.17;;;;;;;;;;5036116;28;20711;-71
2023/08/17 04:38:28;;;;;;;15.00;7.93;;;;;;;;;;5034995;28;20535;-70
2023/08/17 04:40:54;;;;;;;11.07;7.70;;;;;;;;;;5034868;28;20206;-69
2023/08/17 04:43:20;;;;;;;9.40;7.43;;;;;;;;;;5034760;28;20217;-69
2023/08/17 04:45:47;;;;;;;10.60;7.83;;;;;;;;;;5036507;28;20178;-70
2023/08/17 04:48:13;;;;;;;10.57;7.17;;;;;;;;;;5036190;28;20172;-69
2023/08/17 04:50:40;;;;;;;13.07;7.90;;;;;;;;;;5035988;28;20663;-69
2023/08/17 04:53:06;;;;;;;9.63;8.17;;;;;;;;;;5036059;28;20180;-69
2023/08/17 04:55:33;;;;;;;11.50;7.70;;;;;;;;;;5036094;28;20266;-69
2023/08/17 04:57:59;;;;;;;17.33;8.17;;;;;;;;;;5035779;28;20732;-69
2023/08/17 05:00:27;;;;;;;9.57;8.03;;;;;;;;;;5034429;28;20290;-69
2023/08/17 05:02:54;;;;;;;12.97;7.70;;;;;;;;;;5037131;28;20191;-69
2023/08/17 05:05:20;;;;;;;13.73;7.43;;;;;;;;;;5034591;28;20180;-69
2023/08/17 05:07:46;;;;;;;12.73;7.63;;;;;;;;;;5035969;28;20522;-69
2023/08/17 05:10:12;;;;;;;11.70;7.47;;;;;;;;;;5034572;28;20726;-69
2023/08/17 05:12:38;;;;;;;10.27;7.43;;;;;;;;;;5052448;28;20206;-70
2023/08/17 05:15:04;;;;;;;16.70;7.23;;;;;;;;;;5055811;28;20671;-70
2023/08/17 05:17:30;;;;;;;11.67;7.67;;;;;;;;;;5037600;28;20186;-69
2023/08/17 05:19:56;;;;;;;15.07;7.43;;;;;;;;;;5055558;28;20198;-69
2023/08/17 05:22:22;;;;;;;10.00;6.80;;;;;;;;;;5055440;28;20233;-69
2023/08/17 05:24:48;;;;;;;8.53;6.57;;;;;;;;;;5039148;28;20179;-69
2023/08/17 05:27:14;;;;;;;12.07;7.17;;;;;;;;;;5055520;28;20178;-69
2023/08/17 05:29:40;;;;;;;9.50;7.10;;;;;;;;;;5055501;28;20179;-69
2023/08/17 05:32:06;;;;;;;11.07;7.00;;;;;;;;;;5037371;28;20198;-69
2023/08/17 05:34:32;;;;;;;9.93;6.70;;;;;;;;;;5055490;28;20186;-69
2023/08/17 05:36:58;;;;;;;13.87;7.40;;;;;;;;;;5055231;28;20186;-71
2023/08/17 05:39:24;;;;;;;9.97;7.13;;;;;;;;;;5055552;28;20276;-69
2023/08/17 05:41:50;;;;;;;15.53;7.30;;;;;;;;;;5055620;28;20676;-69
2023/08/17 05:44:17;;;;;;;12.50;7.30;;;;;;;;;;5037529;28;20650;-69
2023/08/17 05:46:43;;;;;;;8.87;6.80;;;;;;;;;;5037990;28;20178;-69
2023/08/17 05:49:09;;;;;;;9.40;6.80;;;;;;;;;;5038436;28;20193;-69
2023/08/17 05:51:35;;;;;;;11.00;8.20;;;;;;;;;;5055658;28;20198;-69
2023/08/17 05:54:01;;;;;;;8.33;6.77;;;;;;;;;;5056574;28;20261;-69
2023/08/17 05:56:28;;;;;;;12.17;7.13;;;;;;;;;;5061027;28;20616;-71
2023/08/17 05:58:54;;;;;;;10.83;6.90;;;;;;;;;;5038667;28;20210;-69
2023/08/17 06:01:20;;;;;;;10.37;7.03;;;;;;;;;;5056725;28;20273;-70
2023/08/17 06:03:46;;;;;;;11.10;7.00;;;;;;;;;;5038292;28;20552;-69
2023/08/17 06:06:12;;;;;;;10.77;7.20;;;;;;;;;;5036890;28;20562;-70
2023/08/17 06:08:38;;;;;;;16.33;7.93;;;;;;;;;;5054485;28;20648;-69
2023/08/17 06:11:04;;;;;;;11.03;7.90;;;;;;;;;;5054565;28;20245;-70
2023/08/17 06:13:31;;;;;;;10.40;7.43;;;;;;;;;;5037360;28;20259;-69
2023/08/17 06:15:57;;;;;;;12.17;7.50;;;;;;;;;;5036462;28;20174;-69
2023/08/17 06:18:23;;;;;;;14.30;7.63;;;;;;;;;;5054525;28;20604;-70
2023/08/17 06:20:53;;;;;;;9.23;7.97;;;;;;;;;;5054181;28;20548;-70
2023/08/17 06:23:19;;;;;;;12.27;8.07;;;;;;;;;;5037325;28;20210;-70
2023/08/17 06:25:45;;;;;;;11.73;8.80;;;;;;;;;;5054887;28;20550;-71
2023/08/17 06:28:11;;;;;;;11.77;8.13;;;;;;;;;;5053968;28;20178;-70
2023/08/17 06:30:37;;;;;;;11.70;8.50;;;;;;;;;;5054132;28;20251;-71
2023/08/17 06:33:04;;;;;;;10.67;8.70;;;;;;;;;;5054088;28;20189;-70
2023/08/17 06:35:30;;;;;;;17.83;8.93;;;;;;;;;;5036143;28;20267;-70
2023/08/17 06:37:57;;;;;;;14.83;9.97;;;;;;;;;;5036015;28;20241;-70
2023/08/17 06:40:23;;;;;;;11.40;8.80;;;;;;;;;;5035902;28;20210;-70
2023/08/17 06:42:49;;;;;;;13.43;10.00;;;;;;;;;;5035738;28;20209;-70
2023/08/17 06:45:18;;;;;;;14.67;9.63;;;;;;;;;;5053734;28;20263;-71
2023/08/17 06:47:45;;;;;;;12.43;9.10;;;;;;;;;;5053687;28;20185;-70
2023/08/17 06:50:11;;;;;;;12.73;9.97;;;;;;;;;;5053737;28;20648;-70
2023/08/17 06:52:37;;;;;;;13.47;8.97;;;;;;;;;;5053838;28;20571;-70
2023/08/17 06:55:03;;;;;;;10.57;9.43;;;;;;;;;;5035941;28;20265;-70
2023/08/17 06:57:29;;;;;;;16.30;12.50;;;;;;;;;;5053530;28;20178;-70
2023/08/17 06:59:55;;;;;;;13.33;10.73;;;;;;;;;;5053420;28;20635;-70
2023/08/17 07:02:21;;;;;;;15.17;11.87;;;;;;;;;;5053518;28;20681;-70
2023/08/17 07:04:47;;;;;;;17.90;13.73;;;;;;;;;;5035518;28;20232;-70
2023/08/17 07:07:14;;;;;;;18.83;13.07;;;;;;;;;;5035986;28;20174;-70
2023/08/17 07:09:40;;;;;;;17.43;14.33;;;;;;;;;;5053551;28;20179;-70
2023/08/17 07:12:06;;;;;;;17.30;14.20;;;;;;;;;;5035021;28;20356;-70
2023/08/17 07:14:33;;;;;;;27.83;16.50;;;;;;;;;;5053859;28;20265;-70
2023/08/17 07:16:59;;;;;;;20.87;15.60;;;;;;;;;;5053700;28;20319;-70
2023/08/17 07:19:25;;;;;;;19.50;16.47;;;;;;;;;;5035596;28;20634;-70
2023/08/17 07:21:51;;;;;;;21.23;17.27;;;;;;;;;;5053557;28;20194;-71
2023/08/17 07:24:17;;;;;;;21.27;16.73;;;;;;;;;;5053404;28;20561;-70
2023/08/17 07:26:43;;;;;;;25.10;18.57;;;;;;;;;;5035815;28;20269;-70
2023/08/17 07:29:11;;;;;;;23.13;17.73;;;;;;;;;;5035475;28;20192;-70
2023/08/17 07:31:37;;;;;;;22.87;18.30;;;;;;;;;;5035016;28;20562;-70
2023/08/17 07:34:03;;;;;;;28.33;20.00;;;;;;;;;;5053221;28;20174;-70
2023/08/17 07:36:29;;;;;;;28.47;22.47;;;;;;;;;;5035032;28;20201;-70
2023/08/17 07:38:55;;;;;;;27.60;19.40;;;;;;;;;;5053240;28;20676;-70
2023/08/17 07:41:21;;;;;;;24.50;21.80;;;;;;;;;;5053247;28;20719;-70
2023/08/17 07:43:47;;;;;;;28.10;22.87;;;;;;;;;;5056006;28;20182;-70
2023/08/17 07:46:13;;;;;;;32.60;25.73;;;;;;;;;;5053402;28;20213;-70
2023/08/17 07:48:39;;;;;;;26.90;20.27;;;;;;;;;;5035696;28;20202;-70
2023/08/17 07:51:05;;;;;;;28.83;21.40;;;;;;;;;;5053524;28;20303;-70
2023/08/17 07:53:31;;;;;;;30.27;24.47;;;;;;;;;;5052947;28;20178;-70
2023/08/17 07:55:57;;;;;;;29.77;24.90;;;;;;;;;;5053230;28;20181;-71
2023/08/17 07:58:23;;;;;;;35.83;25.57;;;;;;;;;;5035286;28;20186;-71
2023/08/17 08:00:49;;;;;;;30.10;24.27;;;;;;;;;;5054418;28;20229;-70
2023/08/17 08:03:15;;;;;;;34.93;25.80;;;;;;;;;;5039539;28;20182;-70
2023/08/17 08:05:41;;;;;;;34.33;23.43;;;;;;;;;;5039482;28;20231;-70
2023/08/17 08:08:07;;;;;;;33.17;25.30;;;;;;;;;;5056914;28;20178;-70
2023/08/17 08:10:33;;;;;;;34.03;26.13;;;;;;;;;;5056886;28;20189;-70
2023/08/17 08:12:59;;;;;;;32.07;26.43;;;;;;;;;;5057108;28;20193;-70
2023/08/17 08:15:25;;;;;;;34.97;27.00;;;;;;;;;;5057402;28;20192;-70
2023/08/17 08:17:51;;;;;;;40.67;28.77;;;;;;;;;;5057772;28;20179;-70
2023/08/17 08:20:17;;;;;;;34.03;28.30;;;;;;;;;;5057340;28;20206;-70
2023/08/17 08:22:43;;;;;;;36.27;27.00;;;;;;;;;;5043926;28;20206;-70
2023/08/17 08:25:09;;;;;;;40.33;27.83;;;;;;;;;;5061444;28;20178;-70
2023/08/17 08:27:34;;;;;;;35.57;25.30;;;;;;;;;;5061411;28;20320;-70
2023/08/17 08:30:02;;;;;;;33.37;26.83;;;;;;;;;;5060109;28;20182;-70
2023/08/17 08:32:28;;;;;;;41.43;27.53;;;;;;;;;;5060293;28;20199;-70
2023/08/17 08:34:54;;;;;;;32.50;25.07;;;;;;;;;;5043467;28;20314;-70
2023/08/17 08:37:20;;;;;;;34.23;26.63;;;;;;;;;;5069384;28;20715;-70
2023/08/17 08:39:53;;;;;;;36.70;28.40;;;;;;;;;;5069443;28;20205;-70
2023/08/17 08:42:19;;;;;;;40.60;29.17;;;;;;;;;;5070528;28;20202;-70
2023/08/17 08:44:46;;;;;;;37.43;27.90;;;;;;;;;;5072251;28;20183;-70
2023/08/17 08:47:12;;;;;;;43.10;30.07;;;;;;;;;;5070568;28;20257;-69
2023/08/17 08:49:46;;;;;;;43.93;29.43;;;;;;;;;;5053937;28;20204;-71
2023/08/17 08:52:13;;;;;;;37.40;28.23;;;;;;;;;;5071744;28;20262;-71
2023/08/17 08:54:41;;;;;;;40.13;28.87;;;;;;;;;;5070394;28;20175;-71
2023/08/17 08:57:09;;;;;;;36.57;28.50;;;;;;;;;;5051112;28;20236;-70
2023/08/17 08:59:36;;;;;;;35.57;28.67;;;;;;;;;;5052604;28;20234;-70
2023/08/17 09:02:03;;;;;;;33.00;28.87;;;;;;;;;;5069283;28;20198;-70
2023/08/17 09:04:29;;;;;;;38.93;28.87;;;;;;;;;;5067999;28;20175;-71
2023/08/17 09:06:56;;;;;;;34.63;28.67;;;;;;;;;;5062723;28;20250;-70
2023/08/17 09:09:22;;;;;;;40.73;29.70;;;;;;;;;;5063710;28;20178;-70
2023/08/17 09:11:48;;;;;;;37.07;28.20;;;;;;;;;;5061789;28;20214;-70
2023/08/17 09:14:14;;;;;;;32.63;28.63;;;;;;;;;;5061340;28;20637;-71
2023/08/17 09:16:40;;;;;;;37.57;27.33;;;;;;;;;;5042358;28;20568;-71
2023/08/17 09:19:06;;;;;;;30.93;26.33;;;;;;;;;;5060748;28;20230;-71
2023/08/17 09:21:33;;;;;;;36.03;26.57;;;;;;;;;;5042887;28;20688;-71
2023/08/17 09:23:59;;;;;;;33.43;27.77;;;;;;;;;;5041791;28;20562;-70
2023/08/17 09:26:25;;;;;;;35.27;28.80;;;;;;;;;;5059384;28;20185;-71
2023/08/17 09:28:51;;;;;;;35.70;28.80;;;;;;;;;;5059000;28;20178;-71
2023/08/17 09:31:21;;;;;;;39.77;27.43;;;;;;;;;;5050819;28;20203;-69
2023/08/17 09:33:49;;;;;;;36.00;28.07;;;;;;;;;;5074799;28;20284;-70
2023/08/17 09:36:15;;;;;;;29.40;26.23;;;;;;;;;;5071039;28;20179;-70
2023/08/17 09:38:41;;;;;;;32.10;25.80;;;;;;;;;;5065803;28;20174;-70
2023/08/17 09:41:07;;;;;;;35.10;27.57;;;;;;;;;;5058583;28;20203;-70
2023/08/17 09:43:33;;;;;;;33.47;25.63;;;;;;;;;;5042113;28;20517;-70
2023/08/17 09:46:01;;;;;;;28.87;25.77;;;;;;;;;;5059374;28;20242;-71
2023/08/17 09:48:27;;;;;;;28.40;24.83;;;;;;;;;;5040500;28;20209;-70
2023/08/17 09:50:56;;;;;;;29.00;25.53;;;;;;;;;;5039491;28;20198;-70
2023/08/17 09:53:22;;;;;;;33.17;29.60;;;;;;;;;;5059385;28;20178;-70
2023/08/17 09:55:48;;;;;;;34.43;29.20;;;;;;;;;;5059045;28;20182;-71
2023/08/17 09:58:15;;;;;;;34.30;28.53;;;;;;;;;;5041175;28;20179;-70
2023/08/17 10:00:44;;;;;;;35.77;28.97;;;;;;;;;;5060700;28;20572;-69
2023/08/17 10:03:10;;;;;;;33.43;29.10;;;;;;;;;;5041004;28;20189;-70
2023/08/17 10:05:38;;;;;;;32.33;27.70;;;;;;;;;;5041018;28;20188;-70
2023/08/17 10:08:06;;;;;;;33.03;26.40;;;;;;;;;;5057602;28;20235;-70
2023/08/17 10:10:35;;;;;;;31.00;26.83;;;;;;;;;;5058074;28;20577;-70
2023/08/17 10:13:04;;;;;;;37.33;27.77;;;;;;;;;;5056383;28;20190;-70
2023/08/17 10:15:30;;;;;;;31.57;25.67;;;;;;;;;;5055360;28;20640;-70
2023/08/17 10:18:00;;;;;;;31.20;26.40;;;;;;;;;;5037117;28;20188;-71
2023/08/17 10:20:30;;;;;;;30.47;27.13;;;;;;;;;;5037335;28;20202;-70
2023/08/17 10:23:08;;;;;;;29.23;26.10;;;;;;;;;;5054964;28;20190;-71
2023/08/17 10:25:34;;;;;;;30.53;25.10;;;;;;;;;;5058051;28;20189;-70
2023/08/17 10:28:03;;;;;;;27.73;24.43;;;;;;;;;;5054909;28;20175;-70
2023/08/17 10:30:29;;;;;;;29.73;25.90;;;;;;;;;;5037089;28;20182;-71
2023/08/17 10:32:56;;;;;;;33.00;26.43;;;;;;;;;;5055091;28;20706;-71
2023/08/17 10:35:22;;;;;;;26.63;23.87;;;;;;;;;;5055441;28;20202;-71
2023/08/17 10:37:48;;;;;;;29.57;26.37;;;;;;;;;;5055206;28;20197;-70
2023/08/17 10:40:14;;;;;;;30.70;26.40;;;;;;;;;;5055083;28;20672;-70
2023/08/17 10:42:40;;;;;;;32.33;27.00;;;;;;;;;;5037051;28;20199;-71
2023/08/17 10:45:25;;;;;;;27.53;24.47;;;;;;;;;;5056684;28;20174;-71
2023/08/17 10:48:00;;;;;;;28.27;24.03;;;;;;;;;;5038559;28;20179;-70
2023/08/17 10:50:26;;;;;;;23.60;21.03;;;;;;;;;;5055847;28;20163;-70
2023/08/17 10:52:54;;;;;;;22.17;19.97;;;;;;;;;;5056045;28;20595;-70
2023/08/17 10:55:35;;;;;;;28.07;19.47;;;;;;;;;;5054573;28;20178;-70
2023/08/17 10:58:01;;;;;;;26.03;20.10;;;;;;;;;;5068403;22;20167;-66
2023/08/17 11:00:32;;;;;;;23.67;20.57;;;;;;;;;;5015953;28;20215;-65
2023/08/17 11:02:59;;;;;;;23.70;21.17;;;;;;;;;;5015737;28;20171;-65
2023/08/17 11:05:58;;;;;;;25.07;22.37;;;;;;;;;;5033428;28;20171;-65
2023/08/17 11:08:24;;;;;;;27.20;22.20;;;;;;;;;;5018474;28;20213;-65
2023/08/17 11:11:06;;;;;;;27.27;23.90;;;;;;;;;;5015666;28;20199;-63
2023/08/17 11:13:33;;;;;;;29.87;26.87;;;;;;;;;;5033238;28;20179;-65
2023/08/17 11:15:59;;;;;;;30.07;25.83;;;;;;;;;;5033325;28;20182;-66
2023/08/17 11:18:25;;;;;;;29.70;26.40;;;;;;;;;;5033241;28;20203;-64
2023/08/17 11:20:52;;;;;;;31.67;28.20;;;;;;;;;;5033137;28;20210;-64
2023/08/17 11:23:18;;;;;;;31.43;28.20;;;;;;;;;;5033129;28;20714;-64
2023/08/17 11:25:44;;;;;;;30.27;26.77;;;;;;;;;;5033717;28;20175;-65
2023/08/17 11:28:10;;;;;;;31.07;27.90;;;;;;;;;;5033926;28;20274;-64
2023/08/17 11:30:38;;;;;;;28.87;26.07;;;;;;;;;;5017904;28;20191;-64
2023/08/17 11:33:05;;;;;;;28.17;25.17;;;;;;;;;;5035573;28;20171;-64
2023/08/17 11:35:31;;;;;;;27.77;24.87;;;;;;;;;;5032768;28;20211;-64
2023/08/17 11:37:57;;;;;;;28.10;25.13;;;;;;;;;;5032957;28;20183;-64
2023/08/17 11:40:23;;;;;;;28.37;25.47;;;;;;;;;;5015334;28;20213;-64
2023/08/17 11:42:49;;;;;;;29.40;26.30;;;;;;;;;;5033092;28;20182;-64
2023/08/17 11:45:15;;;;;;;28.60;26.00;;;;;;;;;;5015388;28;20270;-64
2023/08/17 11:47:43;;;;;;;29.93;26.70;;;;;;;;;;5015275;28;20634;-64
2023/08/17 11:50:10;;;;;;;29.30;25.97;;;;;;;;;;5015089;28;20199;-65
2023/08/17 11:52:36;;;;;;;27.70;24.93;;;;;;;;;;5015210;28;20175;-63
2023/08/17 11:55:04;;;;;;;27.87;25.07;;;;;;;;;;5033156;28;20190;-64
2023/08/17 11:57:30;;;;;;;30.63;26.37;;;;;;;;;;5014993;28;20607;-64
2023/08/17 11:59:56;;;;;;;30.13;26.93;;;;;;;;;;5014977;28;20302;-64
2023/08/17 12:02:26;;;;;;;30.73;27.67;;;;;;;;;;5032732;28;20182;-65
2023/08/17 12:04:53;;;;;;;37.13;31.23;;;;;;;;;;5032985;28;20181;-64
2023/08/17 12:07:19;;;;;;;30.80;27.70;;;;;;;;;;5015020;28;20257;-65
2023/08/17 12:09:48;;;;;;;32.17;28.93;;;;;;;;;;5015078;28;20291;-65
2023/08/17 12:12:18;;;;;;;32.80;29.67;;;;;;;;;;5032695;28;20266;-65
2023/08/17 12:14:44;;;;;;;31.63;28.47;;;;;;;;;;5015177;28;20183;-65
2023/08/17 12:17:17;;;;;;;32.97;29.37;;;;;;;;;;5034149;28;20675;-65
2023/08/17 12:19:43;;;;;;;33.87;30.27;;;;;;;;;;5017354;28;20591;-65
2023/08/17 12:22:09;;;;;;;30.83;27.93;;;;;;;;;;5033562;28;20175;-64
2023/08/17 12:24:36;;;;;;;33.87;29.60;;;;;;;;;;5033293;28;20182;-64
2023/08/17 12:27:03;;;;;;;34.83;31.33;;;;;;;;;;5032877;28;20178;-65
2023/08/17 12:29:29;;;;;;;35.63;32.03;;;;;;;;;;5014825;28;20661;-65
2023/08/17 12:31:57;;;;;;;37.87;34.07;;;;;;;;;;5014737;28;20274;-65
2023/08/17 12:34:23;;;;;;;39.33;33.33;;;;;;;;;;5033029;28;20183;-65
2023/08/17 12:36:49;;;;;;;39.40;34.17;;;;;;;;;;5014719;28;20321;-65
2023/08/17 12:39:15;;;;;;;36.47;32.63;;;;;;;;;;5014429;28;20756;-65
2023/08/17 12:41:41;;;;;;;39.20;35.20;;;;;;;;;;5032289;28;20259;-65
2023/08/17 12:44:11;;;;;;;37.57;33.63;;;;;;;;;;5032895;28;20268;-65
2023/08/17 12:46:37;;;;;;;40.63;36.53;;;;;;;;;;5032601;28;20550;-65
2023/08/17 12:49:03;;;;;;;40.40;36.43;;;;;;;;;;5035106;28;20205;-65
2023/08/17 12:51:29;;;;;;;40.87;36.70;;;;;;;;;;5018309;28;20649;-64
2023/08/17 12:53:55;;;;;;;42.23;37.73;;;;;;;;;;5036842;28;20218;-64
2023/08/17 12:56:21;;;;;;;43.17;38.50;;;;;;;;;;5036022;28;20206;-65
2023/08/17 12:58:48;;;;;;;42.13;38.03;;;;;;;;;;5035692;28;20621;-64
2023/08/17 13:01:14;;;;;;;38.80;34.83;;;;;;;;;;5035835;28;20599;-64
2023/08/17 13:03:40;;;;;;;43.83;39.37;;;;;;;;;;5018069;28;20207;-64
2023/08/17 13:06:06;;;;;;;43.43;39.03;;;;;;;;;;5018090;28;20187;-64
2023/08/17 13:08:32;;;;;;;42.50;38.10;;;;;;;;;;5017919;28;20245;-63
2023/08/17 13:10:58;;;;;;;41.63;37.40;;;;;;;;;;5035714;28;20175;-63
2023/08/17 13:13:23;;;;;;;40.63;36.23;;;;;;;;;;5035532;28;20184;-63
2023/08/17 13:15:49;;;;;;;38.43;34.57;;;;;;;;;;5017712;28;20228;-63
2023/08/17 13:18:15;;;;;;;39.33;35.37;;;;;;;;;;5035493;28;20578;-63
2023/08/17 13:20:41;;;;;;;39.07;34.93;;;;;;;;;;5035725;28;20570;-63
2023/08/17 13:23:07;;;;;;;37.73;33.90;;;;;;;;;;5035371;28;20550;-66
2023/08/17 13:25:33;;;;;;;41.00;34.87;;;;;;;;;;5017654;28;20191;-63
2023/08/17 13:27:59;;;;;;;39.17;34.13;;;;;;;;;;5035328;28;20568;-64
2023/08/17 13:30:25;;;;;;;38.10;34.23;;;;;;;;;;5035373;28;20186;-64
2023/08/17 13:32:51;;;;;;;36.57;32.70;;;;;;;;;;5017754;28;20191;-65
2023/08/17 13:35:17;;;;;;;35.40;31.70;;;;;;;;;;5035203;28;20191;-64
2023/08/17 13:37:43;;;;;;;35.13;30.83;;;;;;;;;;5017330;28;20612;-65
2023/08/17 13:40:10;;;;;;;36.87;31.43;;;;;;;;;;5034938;28;20207;-65
2023/08/17 13:42:36;;;;;;;33.63;29.63;;;;;;;;;;5034942;28;20182;-65
2023/08/17 13:45:03;;;;;;;34.57;29.47;;;;;;;;;;5035059;28;20193;-64
2023/08/17 13:47:29;;;;;;;33.53;30.13;;;;;;;;;;5035046;28;20179;-64
2023/08/17 13:49:56;;;;;;;32.53;29.03;;;;;;;;;;5035408;28;20688;-63
2023/08/17 13:52:22;;;;;;;34.20;30.03;;;;;;;;;;5035402;28;20175;-64
2023/08/17 13:54:49;;;;;;;31.63;28.33;;;;;;;;;;5017158;28;20190;-63
2023/08/17 13:57:15;;;;;;;32.17;27.83;;;;;;;;;;5034659;28;20688;-64
2023/08/17 13:59:41;;;;;;;32.97;28.73;;;;;;;;;;5016480;28;20219;-63
2023/08/17 14:02:08;;;;;;;31.43;27.40;;;;;;;;;;5035070;28;20183;-64
2023/08/17 14:04:34;;;;;;;46.83;27.77;;;;;;;;;;5034658;28;20183;-64
2023/08/17 14:07:00;;;;;;;56.90;28.10;;;;;;;;;;5034963;28;20179;-64
2023/08/17 14:09:26;;;;;;;41.07;27.30;;;;;;;;;;5034856;28;20199;-63
2023/08/17 14:11:52;;;;;;;30.53;26.27;;;;;;;;;;5036297;28;20170;-63
2023/08/17 14:14:18;;;;;;;38.53;26.87;;;;;;;;;;5037372;28;20260;-63
2023/08/17 14:16:44;;;;;;;61.10;28.70;;;;;;;;;;5036691;28;20202;-64
2023/08/17 14:19:10;;;;;;;33.43;26.33;;;;;;;;;;5034210;28;20241;-64
2023/08/17 14:21:36;;;;;;;42.53;26.83;;;;;;;;;;5016599;28;20211;-65
2023/08/17 14:24:02;;;;;;;27.80;24.83;;;;;;;;;;5034680;28;20202;-64
2023/08/17 14:26:28;;;;;;;29.30;25.67;;;;;;;;;;5034665;28;20528;-65
2023/08/17 14:28:54;;;;;;;28.43;25.50;;;;;;;;;;5034499;28;20289;-64
2023/08/17 14:31:20;;;;;;;33.50;27.17;;;;;;;;;;5034622;28;20182;-64
2023/08/17 14:33:47;;;;;;;29.37;26.20;;;;;;;;;;5016525;28;20262;-64